createdAt,value
2023-04-16T00:00:15.816Z,0.00
2023-04-16T00:01:15.798Z,0.00
2023-04-16T00:02:15.921Z,0.00
2023-04-16T00:03:15.888Z,0.00
2023-04-16T00:04:15.906Z,0.00
2023-04-16T00:05:15.808Z,0.00
2023-04-16T00:06:15.803Z,0.00
2023-04-16T00:07:15.754Z,0.00
2023-04-16T00:08:15.746Z,0.00
2023-04-16T00:09:15.734Z,0.00
2023-04-16T00:10:15.732Z,0.00
2023-04-16T00:11:15.685Z,0.00
2023-04-16T00:12:15.720Z,0.00
2023-04-16T00:13:15.687Z,0.00
2023-04-16T00:14:15.692Z,0.00
2023-04-16T00:15:15.645Z,0.00
2023-04-16T00:16:15.684Z,0.00
2023-04-16T00:17:15.640Z,0.00
2023-04-16T00:18:15.726Z,0.00
2023-04-16T00:19:15.600Z,0.00
2023-04-16T00:20:15.637Z,0.00
2023-04-16T00:21:15.618Z,0.00
2023-04-16T00:22:15.611Z,0.00
2023-04-16T00:23:15.557Z,0.00
2023-04-16T00:24:16.746Z,0.00
2023-04-16T00:25:15.556Z,0.00
2023-04-16T00:26:15.532Z,0.00
2023-04-16T00:27:15.528Z,0.00
2023-04-16T00:28:15.511Z,0.00
2023-04-16T00:29:15.480Z,0.00
2023-04-16T00:30:15.464Z,0.00
2023-04-16T00:31:15.500Z,0.00
2023-04-16T00:32:15.455Z,0.00
2023-04-16T00:33:15.429Z,0.00
2023-04-16T00:34:20.393Z,0.00
2023-04-16T00:35:15.465Z,0.00
2023-04-16T00:36:15.410Z,0.00
2023-04-16T00:37:15.409Z,0.00
2023-04-16T00:38:15.387Z,0.00
2023-04-16T00:39:15.352Z,0.00
2023-04-16T00:40:15.355Z,0.00
2023-04-16T00:41:15.355Z,0.00
2023-04-16T00:42:15.357Z,0.00
2023-04-16T00:43:15.338Z,0.00
2023-04-16T00:44:15.306Z,0.00
2023-04-16T00:45:16.048Z,0.00
2023-04-16T00:46:15.316Z,0.00
2023-04-16T00:47:15.359Z,0.00
2023-04-16T00:48:15.262Z,0.00
2023-04-16T00:49:15.233Z,0.00
2023-04-16T00:50:15.222Z,0.00
2023-04-16T00:51:15.219Z,0.00
2023-04-16T00:52:15.235Z,0.00
2023-04-16T00:53:15.214Z,0.00
2023-04-16T00:54:15.193Z,0.00
2023-04-16T00:55:15.355Z,0.00
2023-04-16T00:56:15.163Z,0.00
2023-04-16T00:57:15.191Z,0.00
2023-04-16T00:58:15.408Z,0.00
2023-04-16T00:59:15.133Z,0.00
2023-04-16T01:00:15.157Z,0.00
2023-04-16T01:01:15.135Z,0.00
2023-04-16T01:02:15.242Z,0.00
2023-04-16T01:03:15.310Z,0.00
2023-04-16T01:04:15.231Z,0.00
2023-04-16T01:05:15.060Z,0.00
2023-04-16T01:06:15.051Z,0.00
2023-04-16T01:07:15.044Z,0.00
2023-04-16T01:08:15.027Z,0.00
2023-04-16T01:09:15.026Z,0.00
2023-04-16T01:10:15.913Z,0.00
2023-04-16T01:11:15.007Z,0.00
2023-04-16T01:12:15.041Z,0.00
2023-04-16T01:13:14.967Z,0.00
2023-04-16T01:14:14.985Z,0.00
2023-04-16T01:15:14.988Z,0.00
2023-04-16T01:16:14.977Z,0.00
2023-04-16T01:17:14.951Z,0.00
2023-04-16T01:18:14.925Z,0.00
2023-04-16T01:19:14.885Z,0.00
2023-04-16T01:20:14.936Z,0.00
2023-04-16T01:21:14.882Z,0.00
2023-04-16T01:22:14.882Z,0.00
2023-04-16T01:23:14.865Z,0.00
2023-04-16T01:24:14.858Z,0.00
2023-04-16T01:25:14.874Z,0.00
2023-04-16T01:26:14.843Z,0.00
2023-04-16T01:27:14.819Z,0.00
2023-04-16T01:28:14.803Z,0.00
2023-04-16T01:29:14.794Z,0.00
2023-04-16T01:30:14.803Z,0.00
2023-04-16T01:31:14.838Z,0.00
2023-04-16T01:32:14.914Z,0.00
2023-04-16T01:33:14.726Z,0.00
2023-04-16T01:34:14.730Z,0.00
2023-04-16T01:35:14.727Z,0.00
2023-04-16T01:36:14.725Z,0.00
2023-04-16T01:37:14.720Z,0.00
2023-04-16T01:38:14.736Z,0.00
2023-04-16T01:39:14.678Z,0.00
2023-04-16T01:40:14.662Z,0.00
2023-04-16T01:41:14.679Z,0.00
2023-04-16T01:42:14.679Z,0.00
2023-04-16T01:43:14.646Z,0.00
2023-04-16T01:44:14.907Z,0.00
2023-04-16T01:45:14.632Z,0.00
2023-04-16T01:46:14.618Z,0.00
2023-04-16T01:47:14.600Z,0.00
2023-04-16T01:48:14.618Z,0.00
2023-04-16T01:49:14.564Z,0.00
2023-04-16T01:50:15.024Z,0.00
2023-04-16T01:51:14.713Z,0.00
2023-04-16T01:52:14.533Z,0.00
2023-04-16T01:53:14.520Z,0.00
2023-04-16T01:54:14.538Z,0.00
2023-04-16T01:55:14.502Z,0.00
2023-04-16T01:56:14.818Z,0.00
2023-04-16T01:57:14.496Z,0.00
2023-04-16T01:58:14.499Z,0.00
2023-04-16T01:59:14.509Z,0.00
2023-04-16T02:00:14.422Z,0.00
2023-04-16T02:01:14.544Z,0.00
2023-04-16T02:02:14.486Z,0.00
2023-04-16T02:03:14.502Z,0.00
2023-04-16T02:04:14.458Z,0.00
2023-04-16T02:05:14.431Z,0.00
2023-04-16T02:06:14.362Z,0.00
2023-04-16T02:07:14.382Z,0.00
2023-04-16T02:08:14.342Z,0.00
2023-04-16T02:09:14.342Z,0.00
2023-04-16T02:10:14.340Z,0.00
2023-04-16T02:11:14.311Z,0.00
2023-04-16T02:12:14.631Z,0.00
2023-04-16T02:13:14.292Z,0.00
2023-04-16T02:14:14.274Z,0.00
2023-04-16T02:15:14.276Z,0.00
2023-04-16T02:16:14.277Z,0.00
2023-04-16T02:17:14.283Z,0.00
2023-04-16T02:18:14.241Z,0.00
2023-04-16T02:19:14.232Z,0.00
2023-04-16T02:20:14.266Z,0.00
2023-04-16T02:21:14.249Z,0.00
2023-04-16T02:22:14.835Z,0.00
2023-04-16T02:23:17.264Z,0.00
2023-04-16T02:24:17.089Z,0.00
2023-04-16T02:25:14.542Z,0.00
2023-04-16T02:26:14.492Z,0.00
2023-04-16T02:27:14.153Z,0.00
2023-04-16T02:28:14.132Z,0.00
2023-04-16T02:29:14.099Z,0.00
2023-04-16T02:30:14.089Z,0.00
2023-04-16T02:31:14.058Z,0.00
2023-04-16T02:32:14.116Z,0.00
2023-04-16T02:33:14.043Z,0.00
2023-04-16T02:34:14.034Z,0.00
2023-04-16T02:35:14.038Z,0.00
2023-04-16T02:36:14.028Z,0.00
2023-04-16T02:37:14.058Z,0.00
2023-04-16T02:38:14.003Z,0.00
2023-04-16T02:39:13.969Z,0.00
2023-04-16T02:40:14.008Z,0.00
2023-04-16T02:41:13.961Z,0.00
2023-04-16T02:42:13.984Z,0.00
2023-04-16T02:43:13.997Z,0.00
2023-04-16T02:44:13.942Z,0.00
2023-04-16T02:45:13.909Z,0.00
2023-04-16T02:46:13.941Z,0.00
2023-04-16T02:47:13.963Z,0.00
2023-04-16T02:48:13.894Z,0.00
2023-04-16T02:49:13.891Z,0.00
2023-04-16T02:50:13.869Z,0.00
2023-04-16T02:51:13.865Z,0.00
2023-04-16T02:52:15.543Z,0.00
2023-04-16T02:53:13.841Z,0.00
2023-04-16T02:54:13.822Z,0.00
2023-04-16T02:55:13.805Z,0.00
2023-04-16T02:56:16.590Z,0.00
2023-04-16T02:57:13.785Z,0.00
2023-04-16T02:58:13.787Z,0.00
2023-04-16T02:59:13.762Z,0.00
2023-04-16T03:00:13.738Z,0.00
2023-04-16T03:01:13.795Z,0.00
2023-04-16T03:02:13.788Z,0.00
2023-04-16T03:03:13.817Z,0.00
2023-04-16T03:04:13.779Z,0.00
2023-04-16T03:05:13.701Z,0.00
2023-04-16T03:06:13.715Z,0.00
2023-04-16T03:07:13.694Z,0.00
2023-04-16T03:08:13.652Z,0.00
2023-04-16T03:09:13.668Z,0.00
2023-04-16T03:10:13.675Z,0.00
2023-04-16T03:11:13.674Z,0.00
2023-04-16T03:12:13.631Z,0.00
2023-04-16T03:13:13.620Z,0.00
2023-04-16T03:14:13.614Z,0.00
2023-04-16T03:15:13.612Z,0.00
2023-04-16T03:16:13.584Z,0.00
2023-04-16T03:17:13.589Z,0.00
2023-04-16T03:18:13.578Z,0.00
2023-04-16T03:19:13.544Z,0.00
2023-04-16T03:20:13.523Z,0.00
2023-04-16T03:21:13.554Z,0.00
2023-04-16T03:22:13.537Z,0.00
2023-04-16T03:23:13.507Z,0.00
2023-04-16T03:24:13.481Z,0.00
2023-04-16T03:25:13.488Z,0.00
2023-04-16T03:26:13.456Z,0.00
2023-04-16T03:27:13.462Z,0.00
2023-04-16T03:28:13.455Z,0.00
2023-04-16T03:29:13.439Z,0.00
2023-04-16T03:30:13.421Z,0.00
2023-04-16T03:31:13.404Z,0.00
2023-04-16T03:32:13.405Z,0.00
2023-04-16T03:33:13.379Z,0.00
2023-04-16T03:34:13.406Z,0.00
2023-04-16T03:35:13.368Z,0.00
2023-04-16T03:36:13.363Z,0.00
2023-04-16T03:37:13.701Z,0.00
2023-04-16T03:38:13.347Z,0.00
2023-04-16T03:39:13.344Z,0.00
2023-04-16T03:40:13.317Z,0.00
2023-04-16T03:41:13.289Z,0.00
2023-04-16T03:42:13.321Z,0.00
2023-04-16T03:43:13.297Z,0.00
2023-04-16T03:44:13.277Z,0.00
2023-04-16T03:45:14.959Z,0.00
2023-04-16T03:46:13.242Z,0.00
2023-04-16T03:47:15.992Z,0.00
2023-04-16T03:48:13.227Z,0.00
2023-04-16T03:49:13.260Z,0.00
2023-04-16T03:50:13.180Z,0.00
2023-04-16T03:51:13.250Z,0.00
2023-04-16T03:52:16.036Z,0.00
2023-04-16T03:53:13.485Z,0.00
2023-04-16T03:54:13.134Z,0.00
2023-04-16T03:55:13.124Z,0.00
2023-04-16T03:56:13.147Z,0.00
2023-04-16T03:57:13.124Z,0.00
2023-04-16T03:58:13.100Z,0.00
2023-04-16T03:59:13.087Z,0.00
2023-04-16T04:00:13.064Z,0.00
2023-04-16T04:01:13.093Z,0.00
2023-04-16T04:02:13.268Z,0.00
2023-04-16T04:03:13.522Z,0.00
2023-04-16T04:04:13.170Z,0.00
2023-04-16T04:05:13.019Z,0.00
2023-04-16T04:06:13.042Z,0.00
2023-04-16T04:07:13.012Z,0.00
2023-04-16T04:08:13.025Z,0.00
2023-04-16T04:09:12.996Z,0.00
2023-04-16T04:10:12.999Z,0.00
2023-04-16T04:11:13.276Z,0.00
2023-04-16T04:12:12.975Z,0.00
2023-04-16T04:13:12.975Z,0.00
2023-04-16T04:14:12.904Z,0.00
2023-04-16T04:15:12.911Z,0.00
2023-04-16T04:16:12.918Z,0.00
2023-04-16T04:17:12.869Z,0.00
2023-04-16T04:18:12.861Z,0.00
2023-04-16T04:19:12.872Z,0.00
2023-04-16T04:20:12.871Z,0.00
2023-04-16T04:21:12.855Z,4.00
2023-04-16T04:22:12.837Z,4.00
2023-04-16T04:23:12.812Z,0.00
2023-04-16T04:24:12.812Z,4.00
2023-04-16T04:25:12.866Z,4.00
2023-04-16T04:26:12.819Z,4.00
2023-04-16T04:27:12.789Z,4.00
2023-04-16T04:28:12.798Z,4.00
2023-04-16T04:29:12.759Z,8.00
2023-04-16T04:30:13.160Z,8.00
2023-04-16T04:31:12.830Z,4.00
2023-04-16T04:32:12.760Z,8.00
2023-04-16T04:33:12.715Z,8.00
2023-04-16T04:34:12.689Z,8.00
2023-04-16T04:35:12.679Z,12.00
2023-04-16T04:36:12.678Z,12.00
2023-04-16T04:37:13.054Z,12.00
2023-04-16T04:38:15.566Z,16.00
2023-04-16T04:39:12.637Z,16.00
2023-04-16T04:40:12.642Z,16.00
2023-04-16T04:41:12.609Z,20.00
2023-04-16T04:42:12.622Z,24.00
2023-04-16T04:43:12.593Z,24.00
2023-04-16T04:44:12.605Z,28.00
2023-04-16T04:45:12.559Z,28.00
2023-04-16T04:46:12.694Z,28.00
2023-04-16T04:47:12.547Z,32.00
2023-04-16T04:48:12.652Z,36.00
2023-04-16T04:49:12.523Z,36.00
2023-04-16T04:50:12.508Z,40.00
2023-04-16T04:51:12.513Z,44.00
2023-04-16T04:52:12.493Z,48.00
2023-04-16T04:53:12.456Z,48.00
2023-04-16T04:54:12.454Z,52.00
2023-04-16T04:55:12.458Z,64.00
2023-04-16T04:56:13.200Z,68.00
2023-04-16T04:57:12.420Z,64.00
2023-04-16T04:58:12.459Z,76.00
2023-04-16T04:59:12.440Z,80.00
2023-04-16T05:00:12.415Z,84.00
2023-04-16T05:01:12.563Z,92.00
2023-04-16T05:02:12.925Z,100.00
2023-04-16T05:03:14.462Z,104.00
2023-04-16T05:04:12.413Z,108.00
2023-04-16T05:05:12.358Z,108.00
2023-04-16T05:06:12.344Z,116.00
2023-04-16T05:07:12.374Z,128.00
2023-04-16T05:08:12.325Z,132.00
2023-04-16T05:09:12.310Z,148.00
2023-04-16T05:10:12.295Z,148.00
2023-04-16T05:11:12.286Z,148.00
2023-04-16T05:12:12.269Z,144.00
2023-04-16T05:13:12.266Z,156.00
2023-04-16T05:14:12.236Z,152.00
2023-04-16T05:15:13.406Z,168.00
2023-04-16T05:16:15.012Z,168.00
2023-04-16T05:17:12.210Z,180.00
2023-04-16T05:18:12.241Z,180.00
2023-04-16T05:19:12.379Z,188.00
2023-04-16T05:20:12.161Z,180.00
2023-04-16T05:21:13.902Z,188.00
2023-04-16T05:22:12.154Z,192.00
2023-04-16T05:23:12.134Z,204.00
2023-04-16T05:24:14.794Z,208.00
2023-04-16T05:25:12.111Z,248.00
2023-04-16T05:26:12.125Z,232.00
2023-04-16T05:27:12.121Z,220.00
2023-04-16T05:28:12.125Z,220.00
2023-04-16T05:29:12.242Z,228.00
2023-04-16T05:30:12.072Z,240.00
2023-04-16T05:31:12.174Z,228.00
2023-04-16T05:32:12.032Z,244.00
2023-04-16T05:33:14.729Z,236.00
2023-04-16T05:34:12.025Z,248.00
2023-04-16T05:35:12.001Z,248.00
2023-04-16T05:36:12.033Z,256.00
2023-04-16T05:37:12.023Z,240.00
2023-04-16T05:38:11.964Z,240.00
2023-04-16T05:39:12.097Z,260.00
2023-04-16T05:40:11.953Z,276.00
2023-04-16T05:41:11.934Z,276.00
2023-04-16T05:42:11.937Z,276.00
2023-04-16T05:43:11.983Z,280.00
2023-04-16T05:44:11.936Z,276.00
2023-04-16T05:45:11.894Z,288.00
2023-04-16T05:46:11.925Z,288.00
2023-04-16T05:47:11.921Z,288.00
2023-04-16T05:48:11.838Z,328.00
2023-04-16T05:49:11.976Z,332.00
2023-04-16T05:50:11.819Z,344.00
2023-04-16T05:51:11.880Z,340.00
2023-04-16T05:52:11.804Z,356.00
2023-04-16T05:53:11.785Z,344.00
2023-04-16T05:54:11.806Z,360.00
2023-04-16T05:55:11.767Z,324.00
2023-04-16T05:56:11.813Z,336.00
2023-04-16T05:57:11.871Z,348.00
2023-04-16T05:58:11.746Z,372.00
2023-04-16T05:59:12.033Z,404.00
2023-04-16T06:00:11.723Z,412.00
2023-04-16T06:01:11.751Z,444.00
2023-04-16T06:02:11.721Z,424.00
2023-04-16T06:03:11.782Z,460.00
2023-04-16T06:04:11.894Z,476.00
2023-04-16T06:05:11.644Z,480.00
2023-04-16T06:06:11.651Z,468.00
2023-04-16T06:07:11.614Z,488.00
2023-04-16T06:08:12.000Z,540.00
2023-04-16T06:09:11.874Z,600.00
2023-04-16T06:10:11.595Z,724.00
2023-04-16T06:11:11.598Z,808.00
2023-04-16T06:12:11.573Z,856.00
2023-04-16T06:13:11.586Z,932.00
2023-04-16T06:14:11.574Z,824.00
2023-04-16T06:15:11.550Z,740.00
2023-04-16T06:16:11.678Z,656.00
2023-04-16T06:17:11.524Z,712.00
2023-04-16T06:18:11.594Z,768.00
2023-04-16T06:19:11.723Z,636.00
2023-04-16T06:20:11.502Z,600.00
2023-04-16T06:21:11.516Z,644.00
2023-04-16T06:22:11.492Z,588.00
2023-04-16T06:23:11.451Z,580.00
2023-04-16T06:24:11.457Z,572.00
2023-04-16T06:25:11.427Z,536.00
2023-04-16T06:26:11.427Z,568.00
2023-04-16T06:27:11.460Z,680.00
2023-04-16T06:28:13.299Z,636.00
2023-04-16T06:29:11.587Z,584.00
2023-04-16T06:30:11.372Z,624.00
2023-04-16T06:31:11.400Z,636.00
2023-04-16T06:32:11.430Z,596.00
2023-04-16T06:33:11.332Z,600.00
2023-04-16T06:34:11.321Z,628.00
2023-04-16T06:35:11.315Z,592.00
2023-04-16T06:36:11.371Z,584.00
2023-04-16T06:37:11.329Z,612.00
2023-04-16T06:38:11.301Z,564.00
2023-04-16T06:39:11.552Z,512.00
2023-04-16T06:40:11.243Z,524.00
2023-04-16T06:41:11.278Z,548.00
2023-04-16T06:42:11.265Z,672.00
2023-04-16T06:43:11.308Z,672.00
2023-04-16T06:44:11.238Z,672.00
2023-04-16T06:45:11.225Z,700.00
2023-04-16T06:46:11.485Z,684.00
2023-04-16T06:47:11.364Z,736.00
2023-04-16T06:48:11.163Z,720.00
2023-04-16T06:49:11.402Z,728.00
2023-04-16T06:50:11.133Z,764.00
2023-04-16T06:51:11.168Z,788.00
2023-04-16T06:52:11.107Z,752.00
2023-04-16T06:53:11.128Z,700.00
2023-04-16T06:54:11.114Z,736.00
2023-04-16T06:55:11.100Z,784.00
2023-04-16T06:56:11.101Z,820.00
2023-04-16T06:57:11.082Z,908.00
2023-04-16T06:58:11.758Z,868.00
2023-04-16T06:59:11.209Z,892.00
2023-04-16T07:00:11.028Z,968.00
2023-04-16T07:01:13.067Z,860.00
2023-04-16T07:02:13.037Z,908.00
2023-04-16T07:03:12.205Z,944.00
2023-04-16T07:04:12.192Z,892.00
2023-04-16T07:05:13.909Z,884.00
2023-04-16T07:06:13.999Z,928.00
2023-04-16T07:07:14.465Z,1076.00
2023-04-16T07:08:14.333Z,992.00
2023-04-16T07:09:11.434Z,1024.00
2023-04-16T07:10:10.896Z,968.00
2023-04-16T07:11:10.901Z,932.00
2023-04-16T07:12:23.088Z,880.00
2023-04-16T07:13:11.862Z,1020.00
2023-04-16T07:14:10.910Z,1128.00
2023-04-16T07:15:12.840Z,1108.00
2023-04-16T07:16:14.878Z,1092.00
2023-04-16T07:17:11.114Z,1160.00
2023-04-16T07:18:11.267Z,1144.00
2023-04-16T07:19:11.488Z,1108.00
2023-04-16T07:20:12.628Z,1164.00
2023-04-16T07:21:11.645Z,1360.00
2023-04-16T07:22:11.670Z,1240.00
2023-04-16T07:23:12.674Z,1164.00
2023-04-16T07:24:11.757Z,1452.00
2023-04-16T07:25:10.763Z,1476.00
2023-04-16T07:26:14.238Z,1400.00
2023-04-16T07:27:20.041Z,1532.00
2023-04-16T07:28:13.583Z,1292.00
2023-04-16T07:29:10.835Z,1384.00
2023-04-16T07:30:11.109Z,1320.00
2023-04-16T07:31:11.577Z,1300.00
2023-04-16T07:32:13.388Z,1232.00
2023-04-16T07:33:17.424Z,1324.00
2023-04-16T07:34:15.786Z,1368.00
2023-04-16T07:35:14.601Z,1248.00
2023-04-16T07:36:19.972Z,1348.00
2023-04-16T07:37:10.605Z,1336.00
2023-04-16T07:38:14.673Z,1220.00
2023-04-16T07:39:10.742Z,1320.00
2023-04-16T07:40:12.409Z,1432.00
2023-04-16T07:41:12.447Z,1532.00
2023-04-16T07:42:11.353Z,1484.00
2023-04-16T07:43:10.523Z,1868.00
2023-04-16T07:44:10.540Z,1664.00
2023-04-16T07:45:10.537Z,1492.00
2023-04-16T07:46:12.064Z,1604.00
2023-04-16T07:47:13.142Z,1420.00
2023-04-16T07:48:19.435Z,1336.00
2023-04-16T07:50:31.462Z,1576.00
2023-04-16T07:51:30.624Z,1656.00
2023-04-16T07:52:41.968Z,1740.00
2023-04-16T07:53:46.199Z,1852.00
2023-04-16T07:54:30.573Z,1740.00
2023-04-16T07:55:30.895Z,1732.00
2023-04-16T07:56:30.530Z,1572.00
2023-04-16T07:57:30.753Z,1508.00
2023-04-16T07:58:34.744Z,1444.00
2023-04-16T07:59:30.595Z,1732.00
2023-04-16T08:00:31.521Z,2100.00
2023-04-16T08:01:30.488Z,2304.00
2023-04-16T08:02:30.643Z,1864.00
2023-04-16T08:03:30.686Z,1676.00
2023-04-16T08:04:30.657Z,1452.00
2023-04-16T08:05:30.461Z,1360.00
2023-04-16T08:06:30.439Z,1312.00
2023-04-16T08:07:30.444Z,1524.00
2023-04-16T08:08:30.409Z,1704.00
2023-04-16T08:09:30.442Z,1876.00
2023-04-16T08:10:30.424Z,2124.00
2023-04-16T08:11:30.401Z,2164.00
2023-04-16T08:12:32.231Z,2280.00
2023-04-16T08:13:31.801Z,2400.00
2023-04-16T08:14:30.339Z,2448.00
2023-04-16T08:15:30.384Z,2680.00
2023-04-16T08:16:30.326Z,2728.00
2023-04-16T08:17:30.352Z,2764.00
2023-04-16T08:18:30.328Z,2532.00
2023-04-16T08:19:30.294Z,2820.00
2023-04-16T08:20:30.312Z,3248.00
2023-04-16T08:21:30.292Z,3352.00
2023-04-16T08:22:30.265Z,3040.00
2023-04-16T08:23:30.376Z,3196.00
2023-04-16T08:24:30.293Z,2812.00
2023-04-16T08:25:30.284Z,2680.00
2023-04-16T08:26:30.269Z,2504.00
2023-04-16T08:27:30.188Z,2312.00
2023-04-16T08:28:35.053Z,2136.00
2023-04-16T08:29:41.865Z,1800.00
2023-04-16T08:30:30.205Z,1780.00
2023-04-16T08:31:30.234Z,1676.00
2023-04-16T08:32:30.967Z,1680.00
2023-04-16T08:33:30.129Z,1752.00
2023-04-16T08:34:30.142Z,1704.00
2023-04-16T08:35:34.128Z,1680.00
2023-04-16T08:36:30.086Z,1604.00
2023-04-16T08:37:30.099Z,1560.00
2023-04-16T08:38:30.361Z,1512.00
2023-04-16T08:39:30.108Z,1456.00
2023-04-16T08:40:35.154Z,1476.00
2023-04-16T08:41:30.050Z,1496.00
2023-04-16T08:42:30.068Z,1684.00
2023-04-16T08:43:30.045Z,1668.00
2023-04-16T08:44:30.301Z,1824.00
2023-04-16T08:45:30.013Z,1828.00
2023-04-16T08:46:30.129Z,1912.00
2023-04-16T08:47:30.031Z,1840.00
2023-04-16T08:48:29.958Z,1796.00
2023-04-16T08:49:29.963Z,1788.00
2023-04-16T08:50:29.956Z,1796.00
2023-04-16T08:51:33.864Z,1804.00
2023-04-16T08:52:29.936Z,1940.00
2023-04-16T08:53:31.705Z,1764.00
2023-04-16T08:54:29.944Z,1792.00
2023-04-16T08:55:29.897Z,2556.00
2023-04-16T08:56:34.888Z,2752.00
2023-04-16T08:57:30.173Z,2836.00
2023-04-16T08:58:29.854Z,2824.00
2023-04-16T08:59:29.871Z,2604.00
2023-04-16T09:00:30.274Z,2420.00
2023-04-16T09:01:31.042Z,2736.00
2023-04-16T09:02:29.975Z,3272.00
2023-04-16T09:03:29.956Z,3396.00
2023-04-16T09:04:30.040Z,4920.00
2023-04-16T09:05:35.301Z,6028.00
2023-04-16T09:06:29.820Z,5768.00
2023-04-16T09:07:29.759Z,4916.00
2023-04-16T09:08:29.737Z,4292.00
2023-04-16T09:09:29.724Z,3956.00
2023-04-16T09:10:29.772Z,3612.00
2023-04-16T09:11:29.747Z,3332.00
2023-04-16T09:12:29.985Z,3216.00
2023-04-16T09:13:29.700Z,3240.00
2023-04-16T09:14:29.700Z,3116.00
2023-04-16T09:15:29.692Z,3200.00
2023-04-16T09:16:30.174Z,3360.00
2023-04-16T09:17:29.707Z,3140.00
2023-04-16T09:18:29.682Z,2732.00
2023-04-16T09:19:29.661Z,2704.00
2023-04-16T09:20:29.616Z,2792.00
2023-04-16T09:21:29.598Z,2984.00
2023-04-16T09:22:29.663Z,3228.00
2023-04-16T09:23:29.563Z,3620.00
2023-04-16T09:24:29.586Z,3564.00
2023-04-16T09:25:29.549Z,3588.00
2023-04-16T09:26:29.577Z,3108.00
2023-04-16T09:27:29.553Z,2932.00
2023-04-16T09:28:31.866Z,3072.00
2023-04-16T09:29:34.824Z,3096.00
2023-04-16T09:30:29.537Z,2932.00
2023-04-16T09:31:29.507Z,3036.00
2023-04-16T09:32:29.535Z,2872.00
2023-04-16T09:33:29.848Z,2948.00
2023-04-16T09:34:29.454Z,3156.00
2023-04-16T09:35:29.503Z,2920.00
2023-04-16T09:36:29.696Z,2852.00
2023-04-16T09:37:29.401Z,3320.00
2023-04-16T09:38:29.432Z,3572.00
2023-04-16T09:39:29.393Z,3920.00
2023-04-16T09:40:29.475Z,3728.00
2023-04-16T09:41:29.389Z,3716.00
2023-04-16T09:42:29.428Z,3460.00
2023-04-16T09:43:29.374Z,3404.00
2023-04-16T09:44:29.361Z,3288.00
2023-04-16T09:45:29.355Z,3620.00
2023-04-16T09:46:30.219Z,3696.00
2023-04-16T09:47:29.325Z,3992.00
2023-04-16T09:48:29.330Z,4464.00
2023-04-16T09:49:29.322Z,5256.00
2023-04-16T09:50:29.282Z,5648.00
2023-04-16T09:51:29.270Z,6300.00
2023-04-16T09:52:29.249Z,7664.00
2023-04-16T09:53:29.289Z,9116.00
2023-04-16T09:54:29.235Z,10180.00
2023-04-16T09:55:29.253Z,10600.00
2023-04-16T09:56:29.210Z,10984.00
2023-04-16T09:57:29.318Z,11488.00
2023-04-16T09:58:29.258Z,11768.00
2023-04-16T09:59:29.206Z,11536.00
2023-04-16T10:00:29.182Z,11716.00
2023-04-16T10:01:29.242Z,12484.00
2023-04-16T10:02:29.221Z,12768.00
2023-04-16T10:03:29.496Z,13152.00
2023-04-16T10:04:30.997Z,12920.00
2023-04-16T10:05:29.170Z,12724.00
2023-04-16T10:06:29.832Z,12424.00
2023-04-16T10:07:30.115Z,11912.00
2023-04-16T10:08:29.066Z,11316.00
2023-04-16T10:09:29.091Z,10920.00
2023-04-16T10:10:29.052Z,10496.00
2023-04-16T10:11:29.163Z,10184.00
2023-04-16T10:12:29.951Z,9740.00
2023-04-16T10:13:29.045Z,9048.00
2023-04-16T10:14:33.202Z,9232.00
2023-04-16T10:15:28.999Z,9032.00
2023-04-16T10:16:29.089Z,8860.00
2023-04-16T10:17:29.005Z,8440.00
2023-04-16T10:18:28.955Z,7792.00
2023-04-16T10:19:29.278Z,7008.00
2023-04-16T10:20:28.960Z,6504.00
2023-04-16T10:21:28.958Z,6324.00
2023-04-16T10:22:28.918Z,6556.00
2023-04-16T10:23:30.673Z,6888.00
2023-04-16T10:24:28.964Z,7472.00
2023-04-16T10:25:28.879Z,8244.00
2023-04-16T10:26:28.890Z,8284.00
2023-04-16T10:27:28.900Z,7296.00
2023-04-16T10:28:28.857Z,6740.00
2023-04-16T10:29:28.927Z,5868.00
2023-04-16T10:30:28.836Z,5552.00
2023-04-16T10:31:28.876Z,5232.00
2023-04-16T10:32:28.858Z,4672.00
2023-04-16T10:33:29.555Z,4524.00
2023-04-16T10:34:28.821Z,4428.00
2023-04-16T10:35:28.802Z,4304.00
2023-04-16T10:36:28.779Z,3928.00
2023-04-16T10:37:28.757Z,3800.00
2023-04-16T10:38:28.784Z,4036.00
2023-04-16T10:39:28.732Z,4288.00
2023-04-16T10:40:28.730Z,3900.00
2023-04-16T10:41:28.768Z,3492.00
2023-04-16T10:42:28.728Z,3220.00
2023-04-16T10:43:29.009Z,3116.00
2023-04-16T10:44:28.696Z,3016.00
2023-04-16T10:45:28.705Z,3320.00
2023-04-16T10:46:29.116Z,3812.00
2023-04-16T10:47:28.700Z,4536.00
2023-04-16T10:48:33.153Z,5272.00
2023-04-16T10:49:29.916Z,5660.00
2023-04-16T10:50:28.664Z,5976.00
2023-04-16T10:51:28.626Z,6056.00
2023-04-16T10:52:28.589Z,5700.00
2023-04-16T10:53:28.583Z,5428.00
2023-04-16T10:54:28.632Z,5348.00
2023-04-16T10:55:28.561Z,4896.00
2023-04-16T10:56:28.563Z,5264.00
2023-04-16T10:57:28.515Z,6236.00
2023-04-16T10:58:28.535Z,6608.00
2023-04-16T10:59:28.535Z,6412.00
2023-04-16T11:00:28.536Z,6476.00
2023-04-16T11:01:28.556Z,6336.00
2023-04-16T11:02:28.853Z,6040.00
2023-04-16T11:03:28.622Z,6172.00
2023-04-16T11:04:28.705Z,6524.00
2023-04-16T11:05:28.433Z,6556.00
2023-04-16T11:06:28.422Z,6132.00
2023-04-16T11:07:28.450Z,5536.00
2023-04-16T11:08:28.398Z,5280.00
2023-04-16T11:09:28.398Z,5040.00
2023-04-16T11:10:28.418Z,5052.00
2023-04-16T11:11:28.409Z,5008.00
2023-04-16T11:12:28.360Z,5076.00
2023-04-16T11:13:28.329Z,5608.00
2023-04-16T11:14:28.360Z,5724.00
2023-04-16T11:15:28.356Z,4924.00
2023-04-16T11:16:28.675Z,4440.00
2023-04-16T11:17:28.317Z,4672.00
2023-04-16T11:18:28.283Z,4388.00
2023-04-16T11:19:28.295Z,4064.00
2023-04-16T11:20:28.272Z,4016.00
2023-04-16T11:21:28.278Z,4032.00
2023-04-16T11:22:28.261Z,4076.00
2023-04-16T11:23:28.221Z,4156.00
2023-04-16T11:24:28.266Z,4704.00
2023-04-16T11:25:28.204Z,5164.00
2023-04-16T11:26:28.249Z,4876.00
2023-04-16T11:27:28.184Z,4100.00
2023-04-16T11:28:28.178Z,3800.00
2023-04-16T11:29:28.237Z,4172.00
2023-04-16T11:30:28.137Z,4740.00
2023-04-16T11:31:28.262Z,5084.00
2023-04-16T11:32:28.141Z,5288.00
2023-04-16T11:33:28.129Z,5432.00
2023-04-16T11:34:28.138Z,5952.00
2023-04-16T11:35:28.163Z,5912.00
2023-04-16T11:36:28.115Z,5628.00
2023-04-16T11:37:28.097Z,5688.00
2023-04-16T11:38:28.059Z,5900.00
2023-04-16T11:39:28.040Z,6252.00
2023-04-16T11:40:28.053Z,6752.00
2023-04-16T11:41:28.065Z,7092.00
2023-04-16T11:42:28.062Z,7216.00
2023-04-16T11:43:28.006Z,7744.00
2023-04-16T11:44:28.005Z,8216.00
2023-04-16T11:45:29.971Z,7872.00
2023-04-16T11:46:28.126Z,7328.00
2023-04-16T11:47:28.058Z,7168.00
2023-04-16T11:48:27.986Z,7496.00
2023-04-16T11:49:27.983Z,7336.00
2023-04-16T11:50:27.941Z,6708.00
2023-04-16T11:51:28.213Z,6552.00
2023-04-16T11:52:27.969Z,6528.00
2023-04-16T11:53:27.939Z,6908.00
2023-04-16T11:54:27.989Z,7484.00
2023-04-16T11:55:27.864Z,7796.00
2023-04-16T11:56:27.882Z,7564.00
2023-04-16T11:57:27.884Z,6884.00
2023-04-16T11:58:27.863Z,6304.00
2023-04-16T11:59:27.849Z,6364.00
2023-04-16T12:00:27.850Z,7300.00
2023-04-16T12:01:27.826Z,8812.00
2023-04-16T12:02:27.938Z,10272.00
2023-04-16T12:03:27.983Z,10412.00
2023-04-16T12:04:27.922Z,8824.00
2023-04-16T12:05:28.031Z,8528.00
2023-04-16T12:06:27.760Z,8976.00
2023-04-16T12:07:27.755Z,8216.00
2023-04-16T12:08:27.749Z,7780.00
2023-04-16T12:09:27.743Z,7652.00
2023-04-16T12:10:27.804Z,7616.00
2023-04-16T12:11:27.698Z,8376.00
2023-04-16T12:12:27.928Z,8908.00
2023-04-16T12:13:27.679Z,7976.00
2023-04-16T12:14:27.687Z,7092.00
2023-04-16T12:15:27.660Z,6416.00
2023-04-16T12:16:27.684Z,6036.00
2023-04-16T12:17:27.736Z,6124.00
2023-04-16T12:18:27.623Z,6124.00
2023-04-16T12:19:27.624Z,6000.00
2023-04-16T12:20:27.892Z,5896.00
2023-04-16T12:21:27.660Z,6732.00
2023-04-16T12:22:27.574Z,8060.00
2023-04-16T12:23:27.569Z,8348.00
2023-04-16T12:24:27.586Z,8540.00
2023-04-16T12:25:27.558Z,8528.00
2023-04-16T12:26:27.560Z,7812.00
2023-04-16T12:27:28.729Z,7360.00
2023-04-16T12:28:27.527Z,7580.00
2023-04-16T12:29:27.518Z,7900.00
2023-04-16T12:30:27.817Z,8344.00
2023-04-16T12:31:27.514Z,9560.00
2023-04-16T12:32:27.489Z,10540.00
2023-04-16T12:33:27.462Z,11112.00
2023-04-16T12:34:47.958Z,11200.00
2023-04-16T12:35:28.436Z,10904.00
2023-04-16T12:36:27.415Z,10328.00